Time;durP1;ratioP1;P1;durP2;ratioP2;P2;SDS_P1;SDS_P2;PMS_P1;PMS_P2;Temp;Humidity;BMP_temperature;BMP_pressure;BME280_temperature;BME280_humidity;BME280_pressure;Samples;Min_cycle;Max_cycle;Signal;HPM_P1;HPM_P2
2023/09/15 00:02:09;;;;;;;;;;;;;;;;;;5033000;28;19921;-67
2023/09/15 00:04:35;;;;;;;;;;;;;;;;;;5022729;28;19921;-66
2023/09/15 00:07:00;;;;;;;;;;;;;;;;;;5033956;28;19922;-66
2023/09/15 00:09:27;;;;;;;;;;;;;;;;;;5030574;28;19936;-66
2023/09/15 00:11:54;;;;;;;;;;;;;;;;;;5029577;28;19921;-65
2023/09/15 00:14:21;;;;;;;;;;;;;;;;;;5016904;28;19925;-66
2023/09/15 00:16:47;;;;;;;;;;;;;;;;;;5033866;28;19936;-65
2023/09/15 00:19:14;;;;;;;;;;;;;;;;;;5035888;28;19925;-66
2023/09/15 00:21:40;;;;;;;;;;;;;;;;;;5036424;28;19928;-65
2023/09/15 00:24:06;;;;;;;;;;;;;;;;;;5036584;28;19929;-66
2023/09/15 00:26:32;;;;;;;;;;;;;;;;;;5041308;28;19932;-65
2023/09/15 00:28:58;;;;;;;;;;;;;;;;;;5042858;28;19928;-65
2023/09/15 00:31:24;;;;;;;;;;;;;;;;;;5034018;28;19921;-66
2023/09/15 00:33:49;;;;;;;;;;;;;;;;;;5032634;28;19928;-65
2023/09/15 00:36:15;;;;;;;;;;;;;;;;;;5033356;28;19925;-66
2023/09/15 00:38:41;;;;;;;;;;;;;;;;;;5020993;28;19929;-67
2023/09/15 00:41:07;;;;;;;;;;;;;;;;;;4999481;28;20323;-66
2023/09/15 00:43:33;;;;;;;;;;;;;;;;;;5016800;28;20379;-65
2023/09/15 00:45:59;;;;;;;;;;;;;;;;;;5016816;28;20482;-65
2023/09/15 00:48:25;;;;;;;;;;;;;;;;;;5018934;28;19921;-65
2023/09/15 00:50:51;;;;;;;;;;;;;;;;;;5033072;28;19948;-66
2023/09/15 00:53:19;;;;;;;;;;;;;;;;;;5007358;28;19931;-66
2023/09/15 00:55:45;;;;;;;;;;;;;;;;;;5034137;28;20015;-66
2023/09/15 00:58:11;;;;;;;;;;;;;;;;;;5031925;28;20016;-67
2023/09/15 01:00:37;;;;;;;;;;;;;;;;;;5032304;28;19929;-66
2023/09/15 01:03:04;;;;;;;;;;;;;;;;;;5032632;28;19944;-66
2023/09/15 01:05:30;;;;;;;;;;;;;;;;;;5015481;28;20047;-66
2023/09/15 01:07:56;;;;;;;;;;;;;;;;;;5032469;28;20029;-65
2023/09/15 01:10:22;;;;;;;;;;;;;;;;;;5015661;28;19925;-66
2023/09/15 01:12:49;;;;;;;;;;;;;;;;;;5032611;28;19948;-66
2023/09/15 01:15:14;;;;;;;;;;;;;;;;;;5032693;28;19921;-65
2023/09/15 01:17:42;;;;;;;;;;;;;;;;;;5030488;28;19928;-65
2023/09/15 01:20:09;;;;;;;;;;;;;;;;;;5023751;28;20020;-67
2023/09/15 01:22:35;;;;;;;;;;;;;;;;;;5032080;28;20384;-65
2023/09/15 01:25:01;;;;;;;;;;;;;;;;;;5030230;28;19921;-66
2023/09/15 01:27:27;;;;;;;;;;;;;;;;;;5041543;28;20278;-65
2023/09/15 01:29:53;;;;;;;;;;;;;;;;;;5014388;28;19932;-66
2023/09/15 01:32:19;;;;;;;;;;;;;;;;;;5034569;28;19924;-66
2023/09/15 01:34:45;;;;;;;;;;;;;;;;;;5017869;28;20016;-66
2023/09/15 01:37:11;;;;;;;;;;;;;;;;;;5025676;28;19925;-66
2023/09/15 01:39:37;;;;;;;;;;;;;;;;;;5017804;28;20090;-65
2023/09/15 01:42:03;;;;;;;;;;;;;;;;;;5034413;28;19943;-66
2023/09/15 01:44:29;;;;;;;;;;;;;;;;;;5037705;28;19921;-66
2023/09/15 01:46:55;;;;;;;;;;;;;;;;;;5033513;28;20018;-66
2023/09/15 01:49:20;;;;;;;;;;;;;;;;;;5035602;28;20307;-65
2023/09/15 01:51:46;;;;;;;;;;;;;;;;;;5003884;28;19929;-66
2023/09/15 01:54:12;;;;;;;;;;;;;;;;;;5034883;22;19996;-61
2023/09/15 01:56:38;;;;;;;;;;;;;;;;;;5048444;28;20766;-61
2023/09/15 01:59:04;;;;;;;;;;;;;;;;;;5033423;28;20389;-61
2023/09/15 02:01:30;;;;;;;;;;;;;;;;;;5048168;28;19958;-61
2023/09/15 02:03:56;;;;;;;;;;;;;;;;;;5049017;28;19925;-61
2023/09/15 02:06:22;;;;;;;;;;;;;;;;;;5049685;28;19947;-61
2023/09/15 02:08:48;;;;;;;;;;;;;;;;;;5033444;28;19925;-61
2023/09/15 02:11:14;;;;;;;;;;;;;;;;;;5046221;28;19921;-61
2023/09/15 02:13:40;;;;;;;;;;;;;;;;;;5049850;28;20343;-60
2023/09/15 02:16:06;;;;;;;;;;;;;;;;;;5048531;28;19931;-60
2023/09/15 02:18:32;;;;;;;;;;;;;;;;;;5043479;28;19924;-61
2023/09/15 02:20:57;;;;;;;;;;;;;;;;;;5038561;28;20574;-62
2023/09/15 02:23:23;;;;;;;;;;;;;;;;;;5031016;28;19971;-61
2023/09/15 02:25:49;;;;;;;;;;;;;;;;;;5047884;28;20394;-62
2023/09/15 02:28:15;;;;;;;;;;;;;;;;;;5046932;28;20007;-62
2023/09/15 02:30:41;;;;;;;;;;;;;;;;;;5032199;28;20011;-62
2023/09/15 02:33:07;;;;;;;;;;;;;;;;;;5053339;28;20011;-62
2023/09/15 02:35:33;;;;;;;;;;;;;;;;;;5046995;28;19935;-62
2023/09/15 02:37:59;;;;;;;;;;;;;;;;;;5048422;28;19921;-62
2023/09/15 02:40:25;;;;;;;;;;;;;;;;;;5046748;28;19935;-62
2023/09/15 02:42:51;;;;;;;;;;;;;;;;;;5048738;28;19925;-62
2023/09/15 02:45:17;;;;;;;;;;;;;;;;;;5031889;28;19928;-62
2023/09/15 02:47:43;;;;;;;;;;;;;;;;;;5036722;28;19968;-62
2023/09/15 02:50:09;;;;;;;;;;;;;;;;;;5048628;28;19924;-62
2023/09/15 02:52:35;;;;;;;;;;;;;;;;;;5034537;28;20023;-62
2023/09/15 02:55:00;;;;;;;;;;;;;;;;;;5013323;28;19933;-62
2023/09/15 02:57:26;;;;;;;;;;;;;;;;;;5048472;28;19920;-62
2023/09/15 02:59:52;;;;;;;;;;;;;;;;;;5047671;28;19921;-62
2023/09/15 03:02:18;;;;;;;;;;;;;;;;;;5046725;28;20004;-62
2023/09/15 03:04:44;;;;;;;;;;;;;;;;;;5048629;28;19943;-62
2023/09/15 03:07:10;;;;;;;;;;;;;;;;;;5050170;28;19928;-62
2023/09/15 03:09:36;;;;;;;;;;;;;;;;;;5048957;28;20302;-62
2023/09/15 03:12:03;;;;;;;;;;;;;;;;;;5047281;28;19921;-60
2023/09/15 03:14:29;;;;;;;;;;;;;;;;;;5047572;28;20087;-60
2023/09/15 03:16:55;;;;;;;;;;;;;;;;;;5045597;28;19973;-60
2023/09/15 03:19:21;;;;;;;;;;;;;;;;;;5029542;28;20386;-60
2023/09/15 03:21:47;;;;;;;;;;;;;;;;;;5031619;28;19925;-61
2023/09/15 03:24:13;;;;;;;;;;;;;;;;;;5032448;28;19933;-61
2023/09/15 03:26:40;;;;;;;;;;;;;;;;;;5031302;28;20003;-61
2023/09/15 03:29:06;;;;;;;;;;;;;;;;;;5049187;28;19929;-61
2023/09/15 03:31:32;;;;;;;;;;;;;;;;;;5031999;28;20015;-61
2023/09/15 03:33:58;;;;;;;;;;;;;;;;;;5051570;28;19931;-61
2023/09/15 03:36:26;;;;;;;;;;;;;;;;;;5049554;28;20505;-61
2023/09/15 03:38:52;;;;;;;;;;;;;;;;;;5046159;28;19924;-61
2023/09/15 03:41:17;;;;;;;;;;;;;;;;;;5029588;28;20039;-61
2023/09/15 03:43:43;;;;;;;;;;;;;;;;;;5051539;28;19931;-61
2023/09/15 03:46:09;;;;;;;;;;;;;;;;;;5049743;28;19920;-61
2023/09/15 03:48:35;;;;;;;;;;;;;;;;;;5036691;28;19925;-61
2023/09/15 03:51:01;;;;;;;;;;;;;;;;;;5054520;28;19967;-61
2023/09/15 03:53:27;;;;;;;;;;;;;;;;;;5055327;28;20350;-61
2023/09/15 03:55:53;;;;;;;;;;;;;;;;;;5052704;28;20379;-61
2023/09/15 03:58:19;;;;;;;;;;;;;;;;;;5053547;28;19929;-60
2023/09/15 04:00:45;;;;;;;;;;;;;;;;;;5039002;28;19928;-61
2023/09/15 04:03:11;;;;;;;;;;;;;;;;;;5055253;28;20413;-61
2023/09/15 04:05:38;;;;;;;;;;;;;;;;;;5054995;28;19921;-60
2023/09/15 04:08:04;;;;;;;;;;;;;;;;;;5055531;28;19920;-60
2023/09/15 04:10:29;;;;;;;;;;;;;;;;;;5055194;28;19944;-60
2023/09/15 04:12:55;;;;;;;;;;;;;;;;;;5055206;28;20016;-60
2023/09/15 04:15:21;;;;;;;;;;;;;;;;;;5052980;28;19925;-61
2023/09/15 04:17:47;;;;;;;;;;;;;;;;;;5054727;28;19925;-60
2023/09/15 04:20:13;;;;;;;;;;;;;;;;;;5054564;28;19925;-60
2023/09/15 04:22:39;;;;;;;;;;;;;;;;;;5047545;28;19928;-61
2023/09/15 04:25:05;;;;;;;;;;;;;;;;;;5054700;28;19921;-61
2023/09/15 04:27:34;;;;;;;;;;;;;;;;;;5052276;28;20318;-61
2023/09/15 04:30:00;;;;;;;;;;;;;;;;;;5054588;28;19928;-61
2023/09/15 04:32:26;;;;;;;;;;;;;;;;;;5035946;28;19928;-61
2023/09/15 04:34:52;;;;;;;;;;;;;;;;;;5051405;28;19924;-61
2023/09/15 04:37:18;;;;;;;;;;;;;;;;;;5045883;28;20310;-61
2023/09/15 04:39:43;;;;;;;;;;;;;;;;;;5050652;28;20067;-61
2023/09/15 04:42:12;;;;;;;;;;;;;;;;;;5052077;28;19932;-62
2023/09/15 04:44:38;;;;;;;;;;;;;;;;;;5049362;28;20438;-62
2023/09/15 04:47:04;;;;;;;;;;;;;;;;;;5020797;28;19920;-61
2023/09/15 04:49:30;;;;;;;;;;;;;;;;;;5040268;28;19920;-61
2023/09/15 04:51:57;;;;;;;;;;;;;;;;;;5054315;28;19999;-61
2023/09/15 04:54:22;;;;;;;;;;;;;;;;;;5028194;28;19935;-61
2023/09/15 04:56:48;;;;;;;;;;;;;;;;;;5054210;28;20288;-61
2023/09/15 04:59:18;;;;;;;;;;;;;;;;;;5054039;28;20572;-61
2023/09/15 05:01:44;;;;;;;;;;;;;;;;;;5052720;28;19921;-61
2023/09/15 05:04:10;;;;;;;;;;;;;;;;;;5035903;28;19996;-61
2023/09/15 05:06:36;;;;;;;;;;;;;;;;;;5034113;28;20309;-61
2023/09/15 05:09:05;;;;;;;;;;;;;;;;;;5052288;28;20263;-62
2023/09/15 05:11:31;;;;;;;;;;;;;;;;;;5051534;28;20015;-61
2023/09/15 05:13:57;;;;;;;;;;;;;;;;;;5032629;28;20003;-62
2023/09/15 05:16:23;;;;;;;;;;;;;;;;;;5049594;28;20362;-61
2023/09/15 05:18:49;;;;;;;;;;;;;;;;;;5033634;28;19924;-61
2023/09/15 05:21:15;;;;;;;;;;;;;;;;;;5034513;28;20370;-61
2023/09/15 05:23:41;;;;;;;;;;;;;;;;;;5042548;28;19986;-61
2023/09/15 05:26:06;;;;;;;;;;;;;;;;;;5025476;28;19925;-61
2023/09/15 05:28:32;;;;;;;;;;;;;;;;;;5048795;28;20012;-62
2023/09/15 05:30:59;;;;;;;;;;;;;;;;;;5050515;28;19927;-61
2023/09/15 05:33:25;;;;;;;;;;;;;;;;;;5052815;28;20289;-61
2023/09/15 05:35:51;;;;;;;;;;;;;;;;;;5051461;28;19931;-61
2023/09/15 05:38:17;;;;;;;;;;;;;;;;;;5028491;28;19925;-62
2023/09/15 05:40:43;;;;;;;;;;;;;;;;;;5050453;28;19925;-61
2023/09/15 05:43:09;;;;;;;;;;;;;;;;;;5049713;28;19978;-61
2023/09/15 05:45:35;;;;;;;;;;;;;;;;;;5048289;28;19920;-61
2023/09/15 05:48:01;;;;;;;;;;;;;;;;;;5050035;28;19921;-62
2023/09/15 05:50:27;;;;;;;;;;;;;;;;;;5050802;28;19928;-61
2023/09/15 05:52:52;;;;;;;;;;;;;;;;;;5050492;28;19959;-62
2023/09/15 05:55:18;;;;;;;;;;;;;;;;;;5032980;28;19927;-62
2023/09/15 05:57:44;;;;;;;;;;;;;;;;;;5033668;28;19920;-61
2023/09/15 06:00:10;;;;;;;;;;;;;;;;;;5048805;28;19927;-61
2023/09/15 06:02:36;;;;;;;;;;;;;;;;;;5050744;28;19932;-62
2023/09/15 06:05:02;;;;;;;;;;;;;;;;;;5051485;28;20414;-62
2023/09/15 06:07:28;;;;;;;;;;;;;;;;;;5049844;28;19920;-61
2023/09/15 06:09:54;;;;;;;;;;;;;;;;;;5044297;28;19920;-62
2023/09/15 06:12:20;;;;;;;;;;;;;;;;;;5033482;28;19925;-62
2023/09/15 06:14:46;;;;;;;;;;;;;;;;;;5043370;28;19921;-62
2023/09/15 06:17:12;;;;;;;;;;;;;;;;;;5031839;28;19927;-62
2023/09/15 06:19:38;;;;;;;;;;;;;;;;;;5051546;28;19929;-62
2023/09/15 06:22:05;;;;;;;;;;;;;;;;;;5034716;28;20417;-62
2023/09/15 06:24:31;;;;;;;;;;;;;;;;;;5051108;28;19925;-62
2023/09/15 06:26:56;;;;;;;;;;;;;;;;;;5037428;28;19947;-63
2023/09/15 06:29:22;;;;;;;;;;;;;;;;;;5050191;28;19924;-62
2023/09/15 06:31:48;;;;;;;;;;;;;;;;;;5036089;28;19920;-62
2023/09/15 06:34:14;;;;;;;;;;;;;;;;;;5051124;28;20279;-62
2023/09/15 06:36:40;;;;;;;;;;;;;;;;;;5051745;28;19987;-62
2023/09/15 06:39:07;;;;;;;;;;;;;;;;;;5051511;28;19924;-62
2023/09/15 06:41:33;;;;;;;;;;;;;;;;;;5051789;28;19924;-62
2023/09/15 06:43:59;;;;;;;;;;;;;;;;;;5051309;28;19936;-62
2023/09/15 06:46:26;;;;;;;;;;;;;;;;;;5051482;28;19932;-62
2023/09/15 06:48:52;;;;;;;;;;;;;;;;;;5033328;28;20352;-62
2023/09/15 06:51:18;;;;;;;;;;;;;;;;;;5033243;28;19921;-62
2023/09/15 06:53:45;;;;;;;;;;;;;;;;;;5051006;28;19931;-62
2023/09/15 06:56:11;;;;;;;;;;;;;;;;;;5042370;28;19925;-62
2023/09/15 06:58:37;;;;;;;;;;;;;;;;;;5026584;28;20031;-62
2023/09/15 07:01:02;;;;;;;;;;;;;;;;;;5037751;28;19929;-62
2023/09/15 07:03:29;;;;;;;;;;;;;;;;;;5043014;28;20023;-62
2023/09/15 07:05:54;;;;;;;;;;;;;;;;;;5045560;28;19971;-61
2023/09/15 07:08:20;;;;;;;;;;;;;;;;;;5046020;28;19920;-67
2023/09/15 07:10:51;;;;;;;;;;;;;;;;;;5038032;28;19924;-66
2023/09/15 07:13:17;;;;;;;;;;;;;;;;;;5050212;28;20362;-68
2023/09/15 07:15:42;;;;;;;;;;;;;;;;;;5049445;28;19921;-67
2023/09/15 07:18:08;;;;;;;;;;;;;;;;;;5049599;28;19921;-68
2023/09/15 07:20:34;;;;;;;;;;;;;;;;;;5035536;28;20426;-67
2023/09/15 07:23:00;;;;;;;;;;;;;;;;;;5049818;28;19925;-68
2023/09/15 07:25:26;;;;;;;;;;;;;;;;;;5048675;28;20289;-67
2023/09/15 07:27:52;;;;;;;;;;;;;;;;;;5049663;28;19921;-67
2023/09/15 07:30:18;;;;;;;;;;;;;;;;;;5046792;28;19931;-67
2023/09/15 07:32:44;;;;;;;;;;;;;;;;;;5049493;28;19933;-67
2023/09/15 07:35:11;;;;;;;;;;;;;;;;;;5049247;28;19995;-68
2023/09/15 07:37:37;;;;;;;;;;;;;;;;;;5018750;28;19931;-67
2023/09/15 07:40:05;;;;;;;;;;;;;;;;;;5048128;28;20386;-68
2023/09/15 07:42:31;;;;;;;;;;;;;;;;;;5050030;28;19972;-67
2023/09/15 07:44:57;;;;;;;;;;;;;;;;;;5048613;28;19972;-67
2023/09/15 07:47:24;;;;;;;;;;;;;;;;;;5049338;28;19987;-67
2023/09/15 07:49:50;;;;;;;;;;;;;;;;;;5045992;28;19921;-67
2023/09/15 07:52:16;;;;;;;;;;;;;;;;;;5013895;28;19921;-66
2023/09/15 07:54:42;;;;;;;;;;;;;;;;;;5030820;28;19928;-66
2023/09/15 07:57:07;;;;;;;;;;;;;;;;;;5051407;28;19968;-66
2023/09/15 07:59:33;;;;;;;;;;;;;;;;;;5047798;28;19920;-67
2023/09/15 08:01:59;;;;;;;;;;;;;;;;;;5016222;28;20392;-67
2023/09/15 08:04:25;;;;;;;;;;;;;;;;;;5037198;28;20833;-67
2023/09/15 08:06:52;;;;;;;;;;;;;;;;;;5014334;28;19920;-67
2023/09/15 08:09:18;;;;;;;;;;;;;;;;;;5036752;28;20742;-68
2023/09/15 08:11:44;;;;;;;;;;;;;;;;;;5056034;28;19925;-67
2023/09/15 08:14:10;;;;;;;;;;;;;;;;;;5027449;28;20346;-67
2023/09/15 08:16:38;;;;;;;;;;;;;;;;;;5049642;28;21293;-67
2023/09/15 08:19:04;;;;;;;;;;;;;;;;;;5050141;28;19928;-67
2023/09/15 08:21:29;;;;;;;;;;;;;;;;;;5048716;28;19959;-66
2023/09/15 08:23:56;;;;;;;;;;;;;;;;;;5020493;28;19968;-66
2023/09/15 08:26:22;;;;;;;;;;;;;;;;;;5050340;28;19921;-67
2023/09/15 08:28:47;;;;;;;;;;;;;;;;;;5029759;28;19931;-67
2023/09/15 08:31:13;;;;;;;;;;;;;;;;;;5046304;28;19967;-67
2023/09/15 08:33:39;;;;;;;;;;;;;;;;;;5049470;28;20338;-66
2023/09/15 08:36:05;;;;;;;;;;;;;;;;;;5052403;28;19927;-67
2023/09/15 08:38:32;;;;;;;;;;;;;;;;;;5035946;28;19920;-66
2023/09/15 08:40:58;;;;;;;;;;;;;;;;;;5049931;28;19932;-66
2023/09/15 08:43:23;;;;;;;;;;;;;;;;;;5054177;28;19925;-67
2023/09/15 08:45:50;;;;;;;;;;;;;;;;;;5032487;28;19927;-67
2023/09/15 08:48:16;;;;;;;;;;;;;;;;;;5054671;28;20027;-66
2023/09/15 08:50:42;;;;;;;;;;;;;;;;;;5059634;28;20011;-66
2023/09/15 08:53:08;;;;;;;;;;;;;;;;;;5050538;28;19940;-66
2023/09/15 08:55:33;;;;;;;;;;;;;;;;;;5052841;28;19928;-66
2023/09/15 08:57:59;;;;;;;;;;;;;;;;;;5046889;28;19932;-67
2023/09/15 09:00:25;;;;;;;;;;;;;;;;;;5033401;28;19933;-67
2023/09/15 09:02:51;;;;;;;;;;;;;;;;;;5048520;28;19925;-66
2023/09/15 09:05:17;;;;;;;;;;;;;;;;;;5044526;28;19983;-71
2023/09/15 09:07:43;;;;;;;;;;;;;;;;;;5055204;28;19932;-67
2023/09/15 09:10:09;;;;;;;;;;;;;;;;;;5049612;28;20015;-67
2023/09/15 09:12:35;;;;;;;;;;;;;;;;;;5049301;28;20334;-66
2023/09/15 09:15:01;;;;;;;;;;;;;;;;;;5047967;28;19924;-66
2023/09/15 09:17:28;;;;;;;;;;;;;;;;;;5044197;28;20542;-66
2023/09/15 09:19:54;;;;;;;;;;;;;;;;;;5044340;28;19967;-67
2023/09/15 09:22:19;;;;;;;;;;;;;;;;;;5030554;28;19932;-66
2023/09/15 09:24:45;;;;;;;;;;;;;;;;;;5049114;28;19928;-67
2023/09/15 09:27:11;;;;;;;;;;;;;;;;;;5035054;28;19990;-66
2023/09/15 09:29:37;;;;;;;;;;;;;;;;;;5044787;28;19925;-67
2023/09/15 09:32:04;;;;;;;;;;;;;;;;;;5046078;28;20030;-66
2023/09/15 09:34:30;;;;;;;;;;;;;;;;;;5036663;28;19960;-66
2023/09/15 09:36:55;;;;;;;;;;;;;;;;;;5038270;28;19960;-67
2023/09/15 09:39:21;;;;;;;;;;;;;;;;;;5033398;28;19921;-66
2023/09/15 09:41:47;;;;;;;;;;;;;;;;;;5042641;28;19928;-66
2023/09/15 09:44:13;;;;;;;;;;;;;;;;;;5046135;28;19952;-67
2023/09/15 09:46:39;;;;;;;;;;;;;;;;;;5049896;28;19967;-67
2023/09/15 09:49:05;;;;;;;;;;;;;;;;;;5052818;28;19920;-67
2023/09/15 09:51:32;;;;;;;;;;;;;;;;;;5049572;28;19932;-67
2023/09/15 09:53:58;;;;;;;;;;;;;;;;;;5044254;28;19929;-67
2023/09/15 09:56:24;;;;;;;;;;;;;;;;;;5049881;28;19921;-67
2023/09/15 09:58:49;;;;;;;;;;;;;;;;;;5050613;28;19924;-67
2023/09/15 10:01:15;;;;;;;;;;;;;;;;;;5031341;28;19925;-67
2023/09/15 10:03:41;;;;;;;;;;;;;;;;;;5048862;28;20302;-67
2023/09/15 10:06:08;;;;;;;;;;;;;;;;;;5033276;28;19929;-67
2023/09/15 10:08:35;;;;;;;;;;;;;;;;;;5051080;28;19924;-67
2023/09/15 10:11:01;;;;;;;;;;;;;;;;;;5047924;28;20006;-67
2023/09/15 10:13:27;;;;;;;;;;;;;;;;;;5051708;28;19952;-67
2023/09/15 10:15:53;;;;;;;;;;;;;;;;;;5052161;28;20370;-67
2023/09/15 10:18:19;;;;;;;;;;;;;;;;;;5053130;28;19929;-67
2023/09/15 10:20:45;;;;;;;;;;;;;;;;;;5050570;28;19925;-67
2023/09/15 10:23:12;;;;;;;;;;;;;;;;;;5049341;28;20001;-66
2023/09/15 10:25:38;;;;;;;;;;;;;;;;;;5046182;28;19944;-67
2023/09/15 10:28:04;;;;;;;;;;;;;;;;;;5028364;28;19952;-66
2023/09/15 10:30:30;;;;;;;;;;;;;;;;;;5044863;28;19972;-67
2023/09/15 10:32:56;;;;;;;;;;;;;;;;;;5031021;28;19942;-67
2023/09/15 10:35:22;;;;;;;;;;;;;;;;;;5047054;28;20283;-66
2023/09/15 10:37:48;;;;;;;;;;;;;;;;;;5049107;28;19979;-67
2023/09/15 10:40:14;;;;;;;;;;;;;;;;;;5038714;28;19928;-67
2023/09/15 10:42:40;;;;;;;;;;;;;;;;;;5046193;28;19921;-67
2023/09/15 10:45:06;;;;;;;;;;;;;;;;;;5048201;28;20004;-66
2023/09/15 10:47:32;;;;;;;;;;;;;;;;;;5048253;28;19928;-67
2023/09/15 10:50:00;;;;;;;;;;;;;;;;;;5048344;28;20360;-67
2023/09/15 10:52:26;;;;;;;;;;;;;;;;;;5054065;28;20334;-67
2023/09/15 10:54:52;;;;;;;;;;;;;;;;;;5046339;28;20019;-67
2023/09/15 10:57:19;;;;;;;;;;;;;;;;;;5037485;28;19929;-67
2023/09/15 10:59:44;;;;;;;;;;;;;;;;;;5034121;28;19935;-66
2023/09/15 11:02:10;;;;;;;;;;;;;;;;;;5048090;28;20623;-66
2023/09/15 11:04:36;;;;;;;;;;;;;;;;;;5050499;28;19933;-66
2023/09/15 11:07:02;;;;;;;;;;;;;;;;;;5052760;28;20007;-67
2023/09/15 11:09:28;;;;;;;;;;;;;;;;;;5051786;28;19920;-67
2023/09/15 11:11:54;;;;;;;;;;;;;;;;;;5052035;28;19924;-67
2023/09/15 11:14:20;;;;;;;;;;;;;;;;;;5048100;28;20382;-67
2023/09/15 11:16:48;;;;;;;;;;;;;;;;;;5042711;28;19929;-67
2023/09/15 11:19:14;;;;;;;;;;;;;;;;;;5037999;28;20274;-67
2023/09/15 11:21:40;;;;;;;;;;;;;;;;;;5032224;28;19928;-67
2023/09/15 11:24:06;;;;;;;;;;;;;;;;;;5045498;28;20031;-67
2023/09/15 11:26:32;;;;;;;;;;;;;;;;;;5037286;28;20297;-66
2023/09/15 11:28:59;;;;;;;;;;;;;;;;;;5045239;28;19925;-66
2023/09/15 11:31:25;;;;;;;;;;;;;;;;;;5045029;28;19936;-66
2023/09/15 11:33:52;;;;;;;;;;;;;;;;;;5048942;28;19925;-66
2023/09/15 11:36:18;;;;;;;;;;;;;;;;;;5041277;28;19929;-65
2023/09/15 11:38:44;;;;;;;;;;;;;;;;;;5050654;28;20286;-66
2023/09/15 11:41:12;;;;;;;;;;;;;;;;;;5048175;28;20346;-65
2023/09/15 11:43:38;;;;;;;;;;;;;;;;;;5010530;28;19951;-66
2023/09/15 11:46:07;;;;;;;;;;;;;;;;;;5044091;28;20305;-66
2023/09/15 11:48:38;;;;;;;;;;;;;;;;;;5031226;28;19928;-66
2023/09/15 11:51:04;;;;;;;;;;;;;;;;;;5051027;28;19925;-66
2023/09/15 11:53:30;;;;;;;;;;;;;;;;;;5049980;28;20377;-65
2023/09/15 11:55:55;;;;;;;;;;;;;;;;;;5049005;28;19943;-66
2023/09/15 11:58:21;;;;;;;;;;;;;;;;;;5044972;28;19921;-66
2023/09/15 12:00:47;;;;;;;;;;;;;;;;;;5050889;28;19925;-66
2023/09/15 12:03:13;;;;;;;;;;;;;;;;;;5050313;28;19963;-65
2023/09/15 12:05:40;;;;;;;;;;;;;;;;;;5032915;28;19953;-66
2023/09/15 12:08:06;;;;;;;;;;;;;;;;;;5034071;28;19931;-65
2023/09/15 12:10:31;;;;;;;;;;;;;;;;;;5054364;28;19924;-65
2023/09/15 12:12:57;;;;;;;;;;;;;;;;;;5035883;28;19925;-66
2023/09/15 12:15:23;;;;;;;;;;;;;;;;;;5054028;28;20091;-65
2023/09/15 12:17:49;;;;;;;;;;;;;;;;;;5036436;28;19921;-65
2023/09/15 12:20:15;;;;;;;;;;;;;;;;;;5051475;28;19925;-66
2023/09/15 12:22:41;;;;;;;;;;;;;;;;;;5051384;28;19950;-66
2023/09/15 12:25:07;;;;;;;;;;;;;;;;;;5038884;28;19920;-66
2023/09/15 12:27:33;;;;;;;;;;;;;;;;;;5058581;28;19936;-66
2023/09/15 12:29:59;;;;;;;;;;;;;;;;;;5054113;28;20258;-66
2023/09/15 12:32:26;;;;;;;;;;;;;;;;;;5054752;28;19928;-67
2023/09/15 12:34:52;;;;;;;;;;;;;;;;;;5037267;28;19970;-66
2023/09/15 12:37:18;;;;;;;;;;;;;;;;;;5053608;28;19929;-65
2023/09/15 12:39:44;;;;;;;;;;;;;;;;;;5053818;28;19964;-65
2023/09/15 12:42:10;;;;;;;;;;;;;;;;;;5054324;28;19921;-66
2023/09/15 12:44:36;;;;;;;;;;;;;;;;;;5054074;28;19951;-65
2023/09/15 12:47:03;;;;;;;;;;;;;;;;;;5054116;28;19925;-66
2023/09/15 12:49:29;;;;;;;;;;;;;;;;;;5050979;28;19924;-65
2023/09/15 12:51:55;;;;;;;;;;;;;;;;;;5053677;28;19928;-66
2023/09/15 12:54:24;;;;;;;;;;;;;;;;;;5053146;28;19924;-66
2023/09/15 12:56:53;;;;;;;;;;;;;;;;;;5053575;28;19957;-65
2023/09/15 12:59:19;;;;;;;;;;;;;;;;;;5053252;28;20074;-66
2023/09/15 13:01:45;;;;;;;;;;;;;;;;;;5035261;28;20011;-66
2023/09/15 13:04:11;;;;;;;;;;;;;;;;;;5062248;28;20003;-66
2023/09/15 13:06:36;;;;;;;;;;;;;;;;;;5054248;28;20310;-66
2023/09/15 13:09:04;;;;;;;;;;;;;;;;;;5054170;28;20011;-66
2023/09/15 13:11:31;;;;;;;;;;;;;;;;;;5053901;28;19925;-66
2023/09/15 13:13:56;;;;;;;;;;;;;;;;;;5052898;28;19921;-66
2023/09/15 13:16:22;;;;;;;;;;;;;;;;;;5048171;28;20378;-66
2023/09/15 13:18:48;;;;;;;;;;;;;;;;;;5054881;28;20572;-66
2023/09/15 13:21:14;;;;;;;;;;;;;;;;;;5053742;28;19925;-67
2023/09/15 13:23:40;;;;;;;;;;;;;;;;;;5053747;28;20263;-66
2023/09/15 13:26:06;;;;;;;;;;;;;;;;;;5053784;28;19920;-66
2023/09/15 13:28:33;;;;;;;;;;;;;;;;;;5053667;28;19921;-66
2023/09/15 13:31:00;;;;;;;;;;;;;;;;;;5053472;28;20352;-66
2023/09/15 13:33:26;;;;;;;;;;;;;;;;;;5053831;28;19947;-67
2023/09/15 13:35:52;;;;;;;;;;;;;;;;;;5049968;28;20259;-66
2023/09/15 13:38:18;;;;;;;;;;;;;;;;;;5053736;28;19924;-66
2023/09/15 13:40:43;;;;;;;;;;;;;;;;;;5036133;28;19966;-66
2023/09/15 13:43:09;;;;;;;;;;;;;;;;;;5053678;28;20392;-66
2023/09/15 13:45:35;;;;;;;;;;;;;;;;;;5052869;28;19977;-66
2023/09/15 13:48:01;;;;;;;;;;;;;;;;;;5053749;28;19921;-66
2023/09/15 13:50:27;;;;;;;;;;;;;;;;;;5053164;28;20419;-67
2023/09/15 13:52:53;;;;;;;;;;;;;;;;;;5052926;28;19925;-66
2023/09/15 13:55:19;;;;;;;;;;;;;;;;;;5052743;28;19924;-66
2023/09/15 13:57:45;;;;;;;;;;;;;;;;;;5050615;28;19925;-66
2023/09/15 14:00:11;;;;;;;;;;;;;;;;;;5049835;28;19925;-67
2023/09/15 14:02:38;;;;;;;;;;;;;;;;;;5051040;28;19925;-67
2023/09/15 14:05:04;;;;;;;;;;;;;;;;;;5052158;28;19963;-65
2023/09/15 14:07:30;;;;;;;;;;;;;;;;;;5033218;28;20045;-66
2023/09/15 14:09:56;;;;;;;;;;;;;;;;;;5056238;22;19925;-61
2023/09/15 14:12:22;;;;;;;;;;;;;;;;;;5052145;28;19928;-60
2023/09/15 14:14:48;;;;;;;;;;;;;;;;;;5049537;28;19921;-60
2023/09/15 14:17:14;;;;;;;;;;;;;;;;;;5049114;28;19978;-62
2023/09/15 14:19:40;;;;;;;;;;;;;;;;;;5050450;28;19974;-62
2023/09/15 14:22:06;;;;;;;;;;;;;;;;;;5050572;28;20378;-61
2023/09/15 14:24:34;;;;;;;;;;;;;;;;;;5047005;28;19931;-61
2023/09/15 14:27:03;;;;;;;;;;;;;;;;;;5032278;28;19961;-62
2023/09/15 14:29:29;;;;;;;;;;;;;;;;;;5046665;28;19928;-62
2023/09/15 14:31:55;;;;;;;;;;;;;;;;;;5045243;28;19929;-61
2023/09/15 14:34:21;;;;;;;;;;;;;;;;;;5039802;28;19928;-62
2023/09/15 14:36:47;;;;;;;;;;;;;;;;;;5046011;28;20198;-61
2023/09/15 14:39:15;;;;;;;;;;;;;;;;;;5052698;28;19924;-61
2023/09/15 14:41:41;;;;;;;;;;;;;;;;;;5038103;28;19963;-61
2023/09/15 14:44:07;;;;;;;;;;;;;;;;;;5049029;28;20902;-61
2023/09/15 14:46:34;;;;;;;;;;;;;;;;;;5047709;28;20348;-61
2023/09/15 14:49:00;;;;;;;;;;;;;;;;;;5051180;28;19986;-61
2023/09/15 14:51:26;;;;;;;;;;;;;;;;;;5044123;28;19921;-61
2023/09/15 14:53:52;;;;;;;;;;;;;;;;;;5052204;28;19921;-61
2023/09/15 14:56:18;;;;;;;;;;;;;;;;;;5048265;28;20374;-61
2023/09/15 14:58:45;;;;;;;;;;;;;;;;;;5052801;28;19966;-62
2023/09/15 15:01:11;;;;;;;;;;;;;;;;;;5043126;28;20006;-61
2023/09/15 15:03:37;;;;;;;;;;;;;;;;;;5022637;28;20354;-61
2023/09/15 15:06:02;;;;;;;;;;;;;;;;;;5044501;28;19920;-62
2023/09/15 15:08:28;;;;;;;;;;;;;;;;;;5027192;28;19925;-62
2023/09/15 15:10:54;;;;;;;;;;;;;;;;;;5041512;28;19956;-62
2023/09/15 15:13:20;;;;;;;;;;;;;;;;;;5036652;28;19925;-62
2023/09/15 15:15:46;;;;;;;;;;;;;;;;;;5037789;28;19921;-62
2023/09/15 15:18:12;;;;;;;;;;;;;;;;;;5045459;28;20000;-62
2023/09/15 15:20:38;;;;;;;;;;;;;;;;;;5039416;28;19929;-62
2023/09/15 15:23:04;;;;;;;;;;;;;;;;;;5040873;28;19932;-62
2023/09/15 15:25:30;;;;;;;;;;;;;;;;;;5034648;28;19920;-62
2023/09/15 15:27:56;;;;;;;;;;;;;;;;;;5015429;28;21352;-62
2023/09/15 15:30:24;;;;;;;;;;;;;;;;;;5035682;28;20002;-62
2023/09/15 15:32:50;;;;;;;;;;;;;;;;;;5039428;28;19929;-62
2023/09/15 15:35:16;;;;;;;;;;;;;;;;;;5022717;28;19980;-62
2023/09/15 15:37:41;;;;;;;;;;;;;;;;;;5019829;28;20373;-62
2023/09/15 15:40:07;;;;;;;;;;;;;;;;;;5044897;28;19929;-62
2023/09/15 15:42:33;;;;;;;;;;;;;;;;;;5020370;28;19924;-62
2023/09/15 15:44:59;;;;;;;;;;;;;;;;;;5040359;28;20063;-62
2023/09/15 15:47:25;;;;;;;;;;;;;;;;;;5037731;28;19967;-60
2023/09/15 15:49:51;;;;;;;;;;;;;;;;;;5043177;28;19920;-62
2023/09/15 15:52:17;;;;;;;;;;;;;;;;;;5039546;28;19955;-61
2023/09/15 15:54:43;;;;;;;;;;;;;;;;;;5010046;28;20004;-61
2023/09/15 15:57:09;;;;;;;;;;;;;;;;;;5037482;28;20007;-61
2023/09/15 15:59:36;;;;;;;;;;;;;;;;;;5009589;28;19921;-61
2023/09/15 16:02:02;;;;;;;;;;;;;;;;;;5042554;28;19920;-61
2023/09/15 16:04:27;;;;;;;;;;;;;;;;;;5040372;28;19948;-61
2023/09/15 16:06:53;;;;;;;;;;;;;;;;;;5043873;28;19932;-61
2023/09/15 16:09:20;;;;;;;;;;;;;;;;;;5041636;28;19940;-61
2023/09/15 16:11:48;;;;;;;;;;;;;;;;;;5016900;28;19935;-61
2023/09/15 16:14:14;;;;;;;;;;;;;;;;;;5042750;28;19920;-61
2023/09/15 16:16:40;;;;;;;;;;;;;;;;;;5040048;28;19990;-61
2023/09/15 16:19:06;;;;;;;;;;;;;;;;;;5037240;28;20411;-61
2023/09/15 16:21:35;;;;;;;;;;;;;;;;;;5037678;28;19932;-61
2023/09/15 16:24:01;;;;;;;;;;;;;;;;;;5044784;28;19986;-61
2023/09/15 16:26:26;;;;;;;;;;;;;;;;;;5014162;28;19928;-61
2023/09/15 16:28:53;;;;;;;;;;;;;;;;;;5044530;28;19978;-61
2023/09/15 16:31:18;;;;;;;;;;;;;;;;;;5026728;28;20015;-61
2023/09/15 16:33:47;;;;;;;;;;;;;;;;;;5041690;28;20020;-62
2023/09/15 16:36:13;;;;;;;;;;;;;;;;;;5034088;28;19921;-61
2023/09/15 16:38:39;;;;;;;;;;;;;;;;;;5039919;28;19971;-61